Time;durP1;ratioP1;P1;durP2;ratioP2;P2;SDS_P1;SDS_P2;PMS_P1;PMS_P2;Temp;Humidity;BMP_temperature;BMP_pressure;BME280_temperature;BME280_humidity;BME280_pressure;Samples;Min_cycle;Max_cycle;Signal;HPM_P1;HPM_P2
2022/05/20 00:02:44;;;;;;;10.85;6.10;;;17.90;99.90;;;;;;6299101;22;20035;-86
2022/05/20 00:05:32;;;;;;;9.98;5.75;;;17.90;99.90;;;;;;6297193;22;20051;-87
2022/05/20 00:08:19;;;;;;;8.40;5.68;;;17.80;99.90;;;;;;6294653;22;20054;-87
2022/05/20 00:11:08;;;;;;;13.63;6.50;;;17.70;99.90;;;;;;6298816;22;20023;-86
2022/05/20 00:13:55;;;;;;;10.10;5.72;;;17.60;99.90;;;;;;6295585;22;20024;-88
2022/05/20 00:16:43;;;;;;;12.18;6.28;;;17.60;99.90;;;;;;6285666;22;20074;-88
2022/05/20 00:19:32;;;;;;;10.35;6.15;;;17.50;99.90;;;;;;6283933;22;20036;-88
2022/05/20 00:22:19;;;;;;;11.95;6.63;;;17.50;99.90;;;;;;6285526;22;20032;-87
2022/05/20 00:28:25;;;;;;;7.47;6.07;;;17.40;99.90;;;;;;6279050;22;20024;-86
2022/05/20 00:31:21;;;;;;;13.35;6.43;;;17.40;99.90;;;;;;6257017;22;20411;-88
2022/05/20 00:34:08;;;;;;;12.88;6.63;;;17.40;99.90;;;;;;6279670;22;20028;-87
2022/05/20 00:36:58;;;;;;;9.32;6.65;;;17.30;99.90;;;;;;6274643;22;20149;-87
2022/05/20 00:39:51;;;;;;;9.75;6.32;;;17.20;99.90;;;;;;6274801;22;20055;-87
2022/05/20 00:42:38;;;;;;;11.23;6.93;;;17.10;99.90;;;;;;6276228;22;20403;-87
2022/05/20 00:45:26;;;;;;;13.32;6.82;;;16.90;99.90;;;;;;6277193;22;20024;-87
2022/05/20 00:48:14;;;;;;;8.88;6.38;;;16.80;99.90;;;;;;6276919;22;20109;-86
2022/05/20 00:51:22;;;;;;;9.82;6.35;;;16.60;99.90;;;;;;6253718;22;20081;-87
2022/05/20 00:54:28;;;;;;;11.05;6.80;;;16.50;99.90;;;;;;6277181;22;20389;-86
2022/05/20 00:57:30;;;;;;;11.43;6.65;;;16.50;99.90;;;;;;6276648;22;20066;-88
2022/05/20 01:01:04;;;;;;;12.07;7.37;;;16.50;99.90;;;;;;6255799;22;20069;-87
2022/05/20 01:03:55;;;;;;;9.43;6.25;;;16.60;99.90;;;;;;6257286;22;20280;-87
2022/05/20 01:06:45;;;;;;;11.00;7.05;;;16.60;99.90;;;;;;6253809;22;20354;-87
2022/05/20 01:09:36;;;;;;;9.10;6.53;;;16.50;99.90;;;;;;6276215;22;20020;-86
2022/05/20 01:12:27;;;;;;;14.63;7.78;;;16.40;99.90;;;;;;6276049;22;20307;-87
2022/05/20 01:15:14;;;;;;;12.43;7.22;;;16.30;99.90;;;;;;6254237;22;20028;-87
2022/05/20 01:18:04;;;;;;;8.95;6.22;;;16.20;99.90;;;;;;6279215;22;20035;-86
2022/05/20 01:20:54;;;;;;;11.45;7.32;;;16.20;99.90;;;;;;6256935;22;20035;-87
2022/05/20 01:23:45;;;;;;;15.82;7.35;;;16.20;99.90;;;;;;6276980;22;20093;-86
2022/05/20 01:26:34;;;;;;;12.02;7.45;;;16.30;99.90;;;;;;6278051;22;20077;-86
2022/05/20 01:29:21;;;;;;;10.25;7.07;;;16.30;99.90;;;;;;6272975;22;20050;-85
2022/05/20 01:32:15;;;;;;;8.80;6.53;;;16.30;99.90;;;;;;6277867;22;20085;-86
2022/05/20 01:35:07;;;;;;;12.32;8.15;;;16.20;99.90;;;;;;6253106;22;20445;-86
2022/05/20 01:37:57;;;;;;;11.57;7.47;;;16.10;99.90;;;;;;6253626;22;20023;-86
2022/05/20 01:40:52;;;;;;;8.88;7.30;;;16.00;99.90;;;;;;6252613;22;20028;-86
2022/05/20 01:43:50;;;;;;;11.55;7.50;;;15.90;99.90;;;;;;6256392;22;20051;-86
2022/05/20 01:46:41;;;;;;;11.63;8.88;;;15.70;99.90;;;;;;6253205;22;20019;-86
2022/05/20 01:50:10;;;;;;;12.57;9.55;;;15.60;99.90;;;;;;6275111;22;20284;-86
2022/05/20 01:53:01;;;;;;;13.43;8.43;;;15.60;99.90;;;;;;6249342;22;20311;-86
2022/05/20 01:56:11;;;;;;;15.43;8.52;;;15.60;99.90;;;;;;6252336;22;20024;-86
2022/05/20 01:59:22;;;;;;;12.52;8.32;;;15.70;99.90;;;;;;6276709;22;20109;-86
2022/05/20 02:02:38;;;;;;;13.32;8.65;;;15.60;99.90;;;;;;6253745;22;20027;-86
2022/05/20 02:05:34;;;;;;;13.48;8.25;;;15.50;99.90;;;;;;6221579;22;20027;-86
2022/05/20 02:08:35;;;;;;;13.23;8.63;;;15.50;99.90;;;;;;6275200;22;20060;-86
2022/05/20 02:11:26;;;;;;;13.88;8.95;;;15.50;99.90;;;;;;6251510;22;20046;-85
2022/05/20 02:14:22;;;;;;;14.20;7.78;;;15.60;99.90;;;;;;6273564;22;20058;-85
2022/05/20 02:17:19;;;;;;;12.95;8.98;;;15.60;99.90;;;;;;6275615;22;20028;-85
2022/05/20 02:20:11;;;;;;;12.18;8.27;;;15.60;99.90;;;;;;6252482;22;20031;-85
2022/05/20 02:23:02;;;;;;;14.25;8.38;;;15.60;99.90;;;;;;6254312;22;20224;-86
2022/05/20 02:25:56;;;;;;;11.10;9.13;;;15.60;99.90;;;;;;6254968;22;20020;-86
2022/05/20 02:28:49;;;;;;;9.57;7.93;;;15.50;99.90;;;;;;6277122;22;20020;-87
2022/05/20 02:32:10;;;;;;;13.55;9.07;;;15.50;99.90;;;;;;6254007;22;20020;-85
2022/05/20 02:35:00;;;;;;;17.33;10.18;;;15.50;99.90;;;;;;6234145;22;20120;-85
2022/05/20 02:37:47;;;;;;;19.98;10.05;;;15.60;99.90;;;;;;6272817;22;20391;-87
2022/05/20 02:40:38;;;;;;;14.07;10.23;;;15.70;99.90;;;;;;6274440;22;20031;-86
2022/05/20 02:43:26;;;;;;;12.10;9.05;;;15.90;99.90;;;;;;6253711;22;20035;-87
2022/05/20 02:46:13;;;;;;;13.85;8.85;;;15.90;99.90;;;;;;6252325;22;20136;-86
2022/05/20 02:49:00;;;;;;;9.50;8.50;;;16.00;99.90;;;;;;6254755;22;20020;-86
2022/05/20 02:51:47;;;;;;;17.05;7.97;;;16.10;99.90;;;;;;6275608;22;20019;-88
2022/05/20 02:54:35;;;;;;;10.85;7.93;;;16.30;99.90;;;;;;6254181;22;20039;-87
2022/05/20 02:57:25;;;;;;;12.45;8.07;;;16.40;99.90;;;;;;6254360;22;20085;-86
2022/05/20 03:06:29;;;;;;;14.48;7.47;;;16.50;99.90;;;;;;6275611;22;20185;-86
2022/05/20 03:09:19;;;;;;;9.77;7.38;;;16.60;99.90;;;;;;6274773;22;20027;-87
2022/05/20 03:12:10;;;;;;;10.82;7.95;;;16.70;99.90;;;;;;6253314;22;20027;-88
2022/05/20 03:14:58;;;;;;;10.23;7.32;;;16.80;99.90;;;;;;6253368;22;20028;-86
2022/05/20 03:17:45;;;;;;;10.35;7.30;;;16.80;99.90;;;;;;6255300;22;20092;-86
2022/05/20 03:20:33;;;;;;;12.23;6.88;;;17.00;99.90;;;;;;6254324;22;20055;-84
2022/05/20 03:23:22;;;;;;;12.80;6.25;;;17.10;99.90;;;;;;6253891;22;20106;-87
2022/05/20 03:26:10;;;;;;;9.38;5.97;;;17.20;99.90;;;;;;6254438;22;20038;-86
2022/05/20 03:29:05;;;;;;;9.70;5.32;;;17.40;99.90;;;;;;6251269;22;20133;-86
2022/05/20 03:31:52;;;;;;;8.40;5.57;;;17.60;99.90;;;;;;6252145;22;20019;-87
2022/05/20 03:34:43;;;;;;;6.47;4.85;;;17.70;99.90;;;;;;6253075;22;20027;-86
2022/05/20 03:37:36;;;;;;;6.88;4.80;;;17.80;99.90;;;;;;6254131;22;20137;-87
2022/05/20 03:40:23;;;;;;;8.18;5.65;;;17.90;99.90;;;;;;6274576;22;20135;-88
2022/05/20 03:43:15;;;;;;;8.05;6.18;;;17.90;99.90;;;;;;6254343;22;20032;-87
2022/05/20 03:46:03;;;;;;;8.43;5.93;;;17.80;99.90;;;;;;6252213;22;20030;-86
2022/05/20 03:48:50;;;;;;;11.65;5.95;;;17.60;99.90;;;;;;6253881;22;20020;-87
2022/05/20 03:51:41;;;;;;;6.72;5.55;;;17.60;99.90;;;;;;6254165;22;20024;-87
2022/05/20 03:54:32;;;;;;;10.35;5.72;;;17.70;99.90;;;;;;6253109;22;20138;-86
2022/05/20 03:57:22;;;;;;;6.95;5.72;;;17.80;99.90;;;;;;6274674;22;20024;-87
2022/05/20 04:00:12;;;;;;;10.02;5.65;;;17.80;99.90;;;;;;6274061;22;20051;-85
2022/05/20 04:03:01;;;;;;;7.53;5.28;;;17.80;99.90;;;;;;6255127;22;20020;-86
2022/05/20 04:05:49;;;;;;;5.28;4.70;;;17.80;99.90;;;;;;6277315;22;20430;-87
2022/05/20 04:08:38;;;;;;;10.05;5.18;;;17.80;99.90;;;;;;6254767;22;20060;-86
2022/05/20 04:11:27;;;;;;;9.60;5.47;;;17.80;99.90;;;;;;6279001;22;20387;-85
2022/05/20 04:14:16;;;;;;;9.10;5.65;;;17.70;99.90;;;;;;6259028;22;20030;-86
2022/05/20 04:17:06;;;;;;;9.27;6.65;;;17.60;99.90;;;;;;6278491;22;20031;-86
2022/05/20 04:19:54;;;;;;;8.82;5.88;;;17.50;99.90;;;;;;6258175;22;20024;-86
2022/05/20 04:22:55;;;;;;;12.75;6.00;;;17.50;99.90;;;;;;6255827;22;20032;-85
2022/05/20 04:25:47;;;;;;;8.25;6.22;;;17.40;99.90;;;;;;6258511;22;20087;-85
2022/05/20 04:28:37;;;;;;;13.05;6.60;;;17.30;99.90;;;;;;6254731;22;20091;-85
2022/05/20 04:31:24;;;;;;;8.90;5.95;;;17.30;99.90;;;;;;6255716;22;20027;-86
2022/05/20 04:34:12;;;;;;;7.97;5.40;;;17.30;99.90;;;;;;6278064;22;20094;-85
2022/05/20 04:37:00;;;;;;;9.07;5.60;;;17.40;99.90;;;;;;6258581;22;20032;-85
2022/05/20 04:39:50;;;;;;;9.25;5.25;;;17.40;99.90;;;;;;6255466;22;20081;-86
2022/05/20 04:48:52;;;;;;;9.02;5.22;;;17.50;99.90;;;;;;6276457;22;20024;-86
2022/05/20 04:51:42;;;;;;;9.57;5.75;;;17.60;99.90;;;;;;6277227;22;20433;-86
2022/05/20 04:54:50;;;;;;;8.15;5.20;;;17.70;99.90;;;;;;6255922;22;20047;-85
2022/05/20 04:57:47;;;;;;;7.30;5.78;;;17.70;99.90;;;;;;6256181;22;20019;-86
2022/05/20 05:00:39;;;;;;;8.65;5.93;;;17.80;99.90;;;;;;6278485;22;20024;-86
2022/05/20 05:03:26;;;;;;;9.85;5.90;;;17.90;99.90;;;;;;6276924;22;20399;-86
2022/05/20 05:06:13;;;;;;;8.10;5.28;;;17.90;99.90;;;;;;6279918;22;20348;-87
2022/05/20 05:09:03;;;;;;;14.63;6.22;;;17.90;99.90;;;;;;6279384;22;20073;-86
2022/05/20 05:11:52;;;;;;;9.88;5.70;;;17.90;99.90;;;;;;6277512;22;20020;-86
2022/05/20 05:14:46;;;;;;;5.65;4.68;;;18.00;99.90;;;;;;6254334;22;20036;-87
2022/05/20 05:20:51;;;;;;;8.80;5.18;;;18.20;99.90;;;;;;6280386;22;20034;-86
2022/05/20 05:23:38;;;;;;;8.18;5.38;;;18.20;99.90;;;;;;6260575;22;20020;-86
2022/05/20 05:26:28;;;;;;;9.07;5.40;;;18.20;99.90;;;;;;6257910;22;20042;-86
2022/05/20 05:29:16;;;;;;;7.70;5.25;;;18.30;99.90;;;;;;6258103;22;20031;-86
2022/05/20 05:32:05;;;;;;;8.15;5.53;;;18.40;99.90;;;;;;6258443;22;20418;-86
2022/05/20 05:34:52;;;;;;;8.90;5.28;;;18.50;99.90;;;;;;6255945;22;20382;-86
2022/05/20 05:37:41;;;;;;;7.75;4.75;;;18.50;99.90;;;;;;6277942;22;20035;-85
2022/05/20 05:40:30;;;;;;;6.57;4.50;;;18.60;99.90;;;;;;6258420;22;20478;-87
2022/05/20 05:43:18;;;;;;;6.28;3.90;;;18.70;99.90;;;;;;6256419;22;20036;-86
2022/05/20 05:46:10;;;;;;;6.47;4.20;;;18.90;99.90;;;;;;6278220;22;20023;-87
2022/05/20 05:49:03;;;;;;;10.90;4.22;;;19.10;99.90;;;;;;6254981;22;20019;-87
2022/05/20 05:51:53;;;;;;;4.88;3.97;;;19.30;99.90;;;;;;6255096;22;20023;-89
2022/05/20 05:54:43;;;;;;;7.43;4.03;;;19.40;99.90;;;;;;6279438;22;20078;-88
2022/05/20 05:57:36;;;;;;;5.13;3.60;;;19.60;99.90;;;;;;6258644;22;20046;-87
2022/05/20 06:00:26;;;;;;;6.40;3.38;;;19.70;99.90;;;;;;6265253;22;20108;-87
2022/05/20 06:03:16;;;;;;;5.95;3.65;;;19.70;99.90;;;;;;6268855;22;20039;-86
2022/05/20 06:06:06;;;;;;;6.68;3.60;;;19.80;99.90;;;;;;6269109;22;20066;-88
2022/05/20 06:08:53;;;;;;;5.25;3.60;;;19.90;99.90;;;;;;6291379;22;20045;-89
2022/05/20 06:11:45;;;;;;;3.50;3.20;;;20.00;99.90;;;;;;6275929;22;20050;-83
2022/05/20 06:14:32;;;;;;;7.10;3.87;;;20.10;99.90;;;;;;6280579;22;20016;-86
2022/05/20 06:17:19;;;;;;;6.53;3.40;;;20.20;99.90;;;;;;6301955;22;20396;-85
2022/05/20 06:20:07;;;;;;;6.13;3.72;;;20.30;99.90;;;;;;6291287;22;20085;-86
2022/05/20 06:22:57;;;;;;;5.78;3.42;;;20.50;99.90;;;;;;6288052;22;20035;-85
2022/05/20 06:25:45;;;;;;;8.57;3.50;;;20.70;99.90;;;;;;6288016;22;20031;-86
2022/05/20 06:28:52;;;;;;;4.25;3.38;;;21.00;99.90;;;;;;6267945;22;20024;-89
2022/05/20 06:31:42;;;;;;;6.18;3.20;;;21.20;99.90;;;;;;6254886;22;20089;-87
2022/05/20 06:39:48;;;;;;;8.68;3.10;;;21.40;99.90;;;;;;6255450;22;20020;-86
2022/05/20 06:40:49;;;;;;;13.07;2.90;;;21.90;99.90;;;;;;6279206;22;20028;-87
2022/05/20 06:43:37;;;;;;;6.82;3.00;;;22.20;99.90;;;;;;6252856;22;20122;-86
2022/05/20 06:46:25;;;;;;;6.30;3.63;;;22.60;99.90;;;;;;6276001;22;20020;-89
2022/05/20 06:49:15;;;;;;;6.78;2.70;;;22.80;99.90;;;;;;6256586;22;20158;-87
2022/05/20 06:52:03;;;;;;;6.35;3.00;;;22.80;99.90;;;;;;6254482;22;20019;-86
2022/05/20 06:55:11;;;;;;;6.80;3.35;;;22.80;99.90;;;;;;6257567;22;20023;-88
2022/05/20 06:57:59;;;;;;;6.20;3.30;;;22.90;99.30;;;;;;6276487;22;20034;-89
2022/05/20 07:00:51;;;;;;;6.90;3.25;;;23.00;99.90;;;;;;6254798;22;20020;-88
2022/05/20 07:03:39;;;;;;;5.13;3.17;;;23.20;98.40;;;;;;6275007;22;20027;-85
2022/05/20 07:06:30;;;;;;;7.63;3.50;;;23.20;99.00;;;;;;6275634;22;20081;-86
2022/05/20 07:09:19;;;;;;;5.35;3.53;;;23.30;98.10;;;;;;6232991;22;20023;-85
2022/05/20 07:12:07;;;;;;;9.30;3.38;;;23.50;98.90;;;;;;6276028;22;20097;-87
2022/05/20 07:15:00;;;;;;;10.15;3.60;;;23.70;96.50;;;;;;6254231;22;20034;-88
2022/05/20 07:18:00;;;;;;;6.10;2.92;;;23.90;96.90;;;;;;6254765;22;20178;-88
2022/05/20 07:20:48;;;;;;;7.72;3.13;;;24.20;95.90;;;;;;6255797;22;20035;-87
2022/05/20 07:23:41;;;;;;;9.82;3.60;;;24.20;95.50;;;;;;6281731;22;20042;-88
2022/05/20 07:26:39;;;;;;;4.65;2.92;;;24.30;94.20;;;;;;6258780;22;20031;-88
2022/05/20 07:29:29;;;;;;;6.65;3.50;;;24.50;94.00;;;;;;6280999;22;20370;-86
2022/05/20 07:32:22;;;;;;;6.47;3.40;;;24.60;92.80;;;;;;6267225;22;20030;-87
2022/05/20 07:35:16;;;;;;;5.60;3.45;;;24.40;93.30;;;;;;6282355;22;20038;-88
2022/05/20 07:38:07;;;;;;;3.80;2.85;;;24.70;92.70;;;;;;6255959;22;20024;-87
2022/05/20 07:41:00;;;;;;;8.60;3.55;;;24.90;91.90;;;;;;6276698;22;20016;-86
2022/05/20 07:43:47;;;;;;;6.82;3.17;;;25.30;92.40;;;;;;6251929;22;20063;-89
2022/05/20 07:46:37;;;;;;;5.63;3.15;;;25.60;89.70;;;;;;6275995;22;20058;-88
2022/05/20 07:49:27;;;;;;;5.68;2.80;;;25.60;88.40;;;;;;6274663;22;20062;-88
2022/05/20 07:53:19;;;;;;;4.68;3.08;;;25.50;89.60;;;;;;6254065;22;20074;-87
2022/05/20 07:55:27;;;;;;;5.70;3.28;;;25.60;85.90;;;;;;6275025;22;20362;-89
2022/05/20 07:58:20;;;;;;;6.75;3.17;;;25.40;88.00;;;;;;6275577;22;20110;-89
2022/05/20 08:01:32;;;;;;;6.50;3.30;;;25.50;88.00;;;;;;6257285;22;20024;-86
2022/05/20 08:07:42;;;;;;;5.30;3.38;;;26.00;90.30;;;;;;6279164;22;20284;-89
2022/05/20 08:10:33;;;;;;;5.57;3.97;;;26.50;84.50;;;;;;6234576;22;20368;-88
2022/05/20 08:13:24;;;;;;;6.20;3.50;;;26.60;85.00;;;;;;6255103;22;20034;-88
2022/05/20 08:16:12;;;;;;;9.00;3.33;;;26.90;87.80;;;;;;6274264;22;20372;-89
2022/05/20 08:18:59;;;;;;;8.10;3.30;;;27.30;82.00;;;;;;6272599;22;20400;-88
2022/05/20 08:21:47;;;;;;;5.95;3.47;;;27.10;82.40;;;;;;6275481;22;20110;-88
2022/05/20 08:24:34;;;;;;;7.30;3.83;;;27.00;79.00;;;;;;6275441;22;20097;-89
2022/05/20 08:27:23;;;;;;;3.63;3.25;;;27.00;79.00;;;;;;6275592;22;20264;-88
2022/05/20 08:30:16;;;;;;;4.05;3.55;;;26.90;79.50;;;;;;6254546;22;20396;-89
2022/05/20 08:33:04;;;;;;;6.00;3.15;;;27.00;78.50;;;;;;6252303;22;20020;-89
2022/05/20 08:35:58;;;;;;;5.22;3.10;;;27.40;79.40;;;;;;6251192;22;20028;-87
2022/05/20 08:38:48;;;;;;;6.45;3.35;;;27.60;76.60;;;;;;6250957;22;20327;-88
2022/05/20 08:41:45;;;;;;;6.90;3.58;;;27.70;78.40;;;;;;6252929;22;20023;-89
2022/05/20 08:44:36;;;;;;;3.80;3.25;;;28.00;75.70;;;;;;6250968;22;20161;-88
2022/05/20 08:47:28;;;;;;;4.70;3.15;;;28.00;73.60;;;;;;6272878;22;20407;-87
2022/05/20 08:50:29;;;;;;;8.60;3.58;;;28.10;73.80;;;;;;6252337;22;20106;-88
2022/05/20 08:53:45;;;;;;;8.73;3.38;;;28.60;73.20;;;;;;6273007;22;20300;-89
2022/05/20 08:56:37;;;;;;;7.15;3.25;;;28.60;69.90;;;;;;6253642;22;20122;-88
2022/05/20 08:59:30;;;;;;;5.25;3.40;;;28.70;67.20;;;;;;6274668;22;20024;-87
2022/05/20 09:02:21;;;;;;;4.25;3.00;;;28.40;63.10;;;;;;6252786;22;20027;-87
2022/05/20 09:05:28;;;;;;;6.05;3.20;;;28.10;66.10;;;;;;6253478;22;20055;-85
2022/05/20 09:08:21;;;;;;;4.63;3.00;;;28.30;64.80;;;;;;6254191;22;20384;-87
2022/05/20 09:11:17;;;;;;;8.15;3.67;;;28.50;65.40;;;;;;6256202;22;20101;-86
2022/05/20 09:17:27;;;;;;;7.88;3.20;;;28.80;66.00;;;;;;6276353;22;20095;-88
2022/05/20 09:20:22;;;;;;;6.90;3.03;;;29.40;63.30;;;;;;6256582;22;20028;-87
2022/05/20 09:23:12;;;;;;;6.40;3.33;;;29.10;61.30;;;;;;6254131;22;20085;-88
2022/05/20 09:26:02;;;;;;;17.88;3.30;;;28.50;59.00;;;;;;6254011;22;20019;-88
2022/05/20 09:29:03;;;;;;;7.97;3.00;;;28.80;60.00;;;;;;6255220;22;20117;-87
2022/05/20 09:32:25;;;;;;;5.40;3.00;;;29.20;58.00;;;;;;6277007;22;20447;-86
2022/05/20 09:35:19;;;;;;;4.70;2.78;;;29.50;58.70;;;;;;6253000;22;20114;-86
2022/05/20 09:38:30;;;;;;;4.20;2.88;;;29.60;59.20;;;;;;6277824;22;20037;-89
2022/05/20 09:41:20;;;;;;;7.10;3.20;;;29.40;56.20;;;;;;6253590;22;20034;-89
2022/05/20 09:44:15;;;;;;;10.18;3.10;;;29.20;57.40;;;;;;6256074;22;20116;-88
2022/05/20 09:47:14;;;;;;;5.40;2.85;;;28.80;58.10;;;;;;6255345;22;20144;-88
2022/05/20 09:50:28;;;;;;;5.75;3.00;;;29.10;56.80;;;;;;6277003;22;20020;-87
2022/05/20 09:53:33;;;;;;;8.98;3.00;;;29.00;54.60;;;;;;6277469;22;20019;-85
2022/05/20 09:56:28;;;;;;;5.80;2.88;;;29.10;55.70;;;;;;6276815;22;20131;-88
2022/05/20 09:59:50;;;;;;;6.18;2.58;;;29.90;54.50;;;;;;6254872;22;20081;-86
2022/05/20 10:03:02;;;;;;;6.40;2.50;;;30.60;50.10;;;;;;6280797;22;20023;-87
2022/05/20 10:06:04;;;;;;;7.07;2.85;;;30.60;49.80;;;;;;6278418;22;20027;-87
2022/05/20 10:09:00;;;;;;;7.88;2.53;;;30.70;48.70;;;;;;6281267;22;20019;-91
2022/05/20 10:11:58;;;;;;;8.48;2.75;;;30.90;45.90;;;;;;6279358;22;20031;-88
2022/05/20 10:15:01;;;;;;;5.93;2.72;;;31.40;47.00;;;;;;6287538;22;20391;-85
2022/05/20 10:18:15;;;;;;;5.72;2.65;;;31.40;46.00;;;;;;6289037;22;20027;-84
2022/05/20 10:21:33;;;;;;;7.13;2.47;;;31.80;45.10;;;;;;6286350;22;20066;-85
2022/05/20 10:24:41;;;;;;;8.32;2.63;;;30.70;43.90;;;;;;6283585;22;20077;-89
2022/05/20 10:27:35;;;;;;;4.65;2.60;;;31.10;46.00;;;;;;6291122;22;20023;-86
2022/05/20 10:33:38;;;;;;;7.45;2.90;;;31.30;46.60;;;;;;6292393;22;20019;-87
2022/05/20 10:36:59;;;;;;;4.57;2.70;;;31.40;44.90;;;;;;6291426;22;20031;-87
2022/05/20 10:40:01;;;;;;;8.23;2.70;;;31.80;43.60;;;;;;6262130;22;20087;-86
2022/05/20 10:43:00;;;;;;;6.55;2.55;;;31.80;44.40;;;;;;6266681;22;20028;-88
2022/05/20 10:49:19;;;;;;;5.68;2.70;;;31.60;39.90;;;;;;6283092;22;20093;-87
2022/05/20 10:52:20;;;;;;;8.10;2.70;;;31.70;43.80;;;;;;6278682;22;20020;-88
2022/05/20 10:55:16;;;;;;;9.98;3.22;;;31.90;42.10;;;;;;6257254;22;20077;-90
2022/05/20 10:58:28;;;;;;;5.65;2.83;;;31.70;43.10;;;;;;6280150;22;20023;-85
2022/05/20 11:01:21;;;;;;;7.70;2.77;;;32.10;43.60;;;;;;6270116;22;20075;-84
2022/05/20 11:04:34;;;;;;;8.13;2.88;;;31.60;42.20;;;;;;6269601;22;20042;-86
2022/05/20 11:07:40;;;;;;;7.60;2.70;;;31.20;45.00;;;;;;6270445;22;20030;-83
2022/05/20 11:10:42;;;;;;;5.78;2.75;;;31.60;41.60;;;;;;6273786;22;20062;-82
2022/05/20 11:13:36;;;;;;;8.73;2.63;;;31.80;41.80;;;;;;6298712;22;20037;-88
2022/05/20 11:16:59;;;;;;;5.68;2.72;;;31.90;42.80;;;;;;6287759;22;20026;-89
2022/05/20 11:20:11;;;;;;;4.88;2.97;;;33.00;42.30;;;;;;6272290;22;20074;-86
2022/05/20 11:23:22;;;;;;;6.45;2.67;;;32.80;39.90;;;;;;6288114;22;20038;-88
2022/05/20 11:26:41;;;;;;;5.93;2.47;;;33.50;41.80;;;;;;6280475;22;20050;-89
2022/05/20 11:29:47;;;;;;;8.63;2.65;;;34.80;40.00;;;;;;6256540;22;20461;-88
2022/05/20 11:33:10;;;;;;;9.00;3.03;;;33.70;38.40;;;;;;6278733;22;20050;-87
2022/05/20 11:36:24;;;;;;;4.25;3.08;;;33.60;37.60;;;;;;6279959;22;20027;-86
2022/05/20 11:39:26;;;;;;;9.23;3.05;;;32.60;38.70;;;;;;6283618;22;20038;-85
2022/05/20 11:42:37;;;;;;;3.72;2.65;;;31.50;40.00;;;;;;6267406;22;20027;-87
2022/05/20 11:45:37;;;;;;;7.50;2.28;;;31.10;42.20;;;;;;6280429;22;20023;-87
2022/05/20 11:48:40;;;;;;;7.07;2.97;;;32.00;40.80;;;;;;6277568;22;20023;-88
2022/05/20 11:51:48;;;;;;;5.47;2.60;;;32.50;41.20;;;;;;6278727;22;20410;-89
2022/05/20 11:54:45;;;;;;;6.18;2.58;;;32.00;40.10;;;;;;6279553;22;20115;-87
2022/05/20 11:57:46;;;;;;;8.50;3.30;;;31.60;41.30;;;;;;6280042;22;20024;-87
2022/05/20 12:00:41;;;;;;;5.45;2.47;;;32.30;41.20;;;;;;6259103;22;20035;-88
2022/05/20 12:04:06;;;;;;;6.05;3.08;;;32.50;41.40;;;;;;6276133;22;20032;-85
2022/05/20 12:06:53;;;;;;;6.88;2.70;;;32.50;40.00;;;;;;6279544;22;20051;-88
2022/05/20 12:09:58;;;;;;;6.95;2.42;;;32.70;40.10;;;;;;6280982;22;20096;-89
2022/05/20 12:13:11;;;;;;;7.22;2.58;;;33.40;39.40;;;;;;6258458;22;20102;-88
2022/05/20 12:16:12;;;;;;;7.40;2.63;;;33.60;36.00;;;;;;6278800;22;20024;-88
2022/05/20 12:25:39;;;;;;;8.07;2.65;;;33.80;36.40;;;;;;6296163;22;20030;-84
2022/05/20 12:28:26;;;;;;;6.78;2.65;;;33.10;37.60;;;;;;6289111;22;20119;-85
2022/05/20 12:31:20;;;;;;;8.05;2.92;;;32.30;37.40;;;;;;6280566;22;20019;-87
2022/05/20 12:34:28;;;;;;;5.28;2.15;;;33.10;37.00;;;;;;6279720;22;20027;-87
2022/05/20 12:37:42;;;;;;;7.32;2.70;;;33.60;34.70;;;;;;6258184;22;20027;-88
2022/05/20 12:40:29;;;;;;;8.23;2.72;;;33.10;35.30;;;;;;6280891;22;20024;-87
2022/05/20 12:43:17;;;;;;;9.65;3.10;;;32.70;36.50;;;;;;6259092;22;20078;-88
2022/05/20 12:46:08;;;;;;;6.03;2.88;;;33.20;36.90;;;;;;6283395;22;20071;-88
2022/05/20 12:48:56;;;;;;;7.95;2.83;;;33.30;35.30;;;;;;6282119;22;20023;-89
2022/05/20 12:51:48;;;;;;;8.48;3.05;;;33.90;37.00;;;;;;6280184;22;20024;-88
2022/05/20 12:54:40;;;;;;;4.82;2.67;;;35.10;34.70;;;;;;6261701;22;20379;-85
2022/05/20 12:57:29;;;;;;;;;;;34.40;35.30;;;;;;6261383;22;20058;-86
2022/05/20 13:00:34;;;;;;;5.75;2.60;;;34.30;35.40;;;;;;6280863;22;19926;-90
2022/05/20 13:03:25;;;;;;;12.45;2.90;;;34.00;34.50;;;;;;6282109;22;20027;-87
2022/05/20 13:06:25;;;;;;;5.20;2.28;;;34.10;34.70;;;;;;6261137;22;20028;-88
2022/05/20 13:09:19;;;;;;;4.57;2.20;;;34.30;33.90;;;;;;6263336;22;20023;-85
2022/05/20 13:12:18;;;;;;;4.18;2.17;;;34.10;33.40;;;;;;6286701;22;20024;-91
2022/05/20 13:15:06;;;;;;;7.95;2.42;;;34.00;34.20;;;;;;6286923;22;20422;-89
2022/05/20 13:18:03;;;;;;;7.28;2.75;;;33.70;33.10;;;;;;6263803;22;20034;-87
2022/05/20 13:20:59;;;;;;;6.90;2.33;;;33.60;34.20;;;;;;6285945;22;20106;-88
2022/05/20 13:23:53;;;;;;;7.82;2.35;;;33.50;33.20;;;;;;6260726;22;20033;-88
2022/05/20 13:26:44;;;;;;;5.60;2.50;;;33.90;34.30;;;;;;6259365;22;20066;-90
2022/05/20 13:29:34;;;;;;;8.27;2.42;;;33.80;33.70;;;;;;6259192;22;20053;-90
2022/05/20 13:32:31;;;;;;;6.43;2.50;;;34.30;33.70;;;;;;6281596;22;20019;-88
2022/05/20 13:35:21;;;;;;;6.00;2.17;;;33.80;34.40;;;;;;6257091;22;20027;-91
2022/05/20 13:38:11;;;;;;;7.45;2.35;;;33.60;34.90;;;;;;6281146;22;20058;-87
2022/05/20 13:40:59;;;;;;;10.75;2.53;;;33.80;34.00;;;;;;6278884;22;20023;-89
2022/05/20 13:43:46;;;;;;;6.57;2.67;;;34.10;34.00;;;;;;6281150;22;20039;-88
2022/05/20 13:49:48;;;;;;;5.72;2.80;;;34.10;35.40;;;;;;6280415;22;20085;-87
2022/05/20 13:52:37;;;;;;;9.73;2.58;;;35.00;32.40;;;;;;6282691;22;20020;-90
2022/05/20 13:55:33;;;;;;;6.22;2.65;;;34.80;33.80;;;;;;6283566;22;20024;-89
2022/05/20 13:58:22;;;;;;;7.28;2.20;;;35.30;32.70;;;;;;6283863;22;20024;-88
2022/05/20 14:01:15;;;;;;;11.02;3.38;;;35.70;32.50;;;;;;6259332;22;20027;-87
2022/05/20 14:04:04;;;;;;;8.02;2.75;;;35.70;32.50;;;;;;6280072;22;20031;-91
2022/05/20 14:06:52;;;;;;;8.90;2.50;;;34.70;33.40;;;;;;6282546;22;20465;-92
2022/05/20 14:09:42;;;;;;;8.43;2.63;;;34.90;32.60;;;;;;6288069;22;20030;-90
2022/05/20 14:12:33;;;;;;;7.43;2.35;;;34.80;34.20;;;;;;6285223;22;20454;-89
2022/05/20 14:15:32;;;;;;;13.18;2.97;;;36.10;33.60;;;;;;6278339;22;20061;-87
2022/05/20 14:18:30;;;;;;;5.78;2.60;;;35.90;31.80;;;;;;6258215;22;20149;-85
2022/05/20 14:21:35;;;;;;;7.78;2.80;;;35.70;32.40;;;;;;6280099;22;20051;-85
2022/05/20 14:24:28;;;;;;;5.57;2.50;;;35.40;33.60;;;;;;6278629;22;20075;-86
2022/05/20 14:27:52;;;;;;;8.07;2.78;;;35.10;35.20;;;;;;6279697;22;20028;-90
2022/05/20 14:30:50;;;;;;;15.02;3.30;;;34.00;36.60;;;;;;6281599;22;20078;-87
2022/05/20 14:33:48;;;;;;;6.85;2.80;;;32.70;38.20;;;;;;6280495;22;20027;-88
2022/05/20 14:36:37;;;;;;;12.50;3.50;;;32.30;39.60;;;;;;6279285;22;20046;-86
2022/05/20 14:39:28;;;;;;;9.95;2.95;;;32.10;38.80;;;;;;6279376;22;20284;-85
2022/05/20 14:42:36;;;;;;;9.15;2.63;;;32.10;39.00;;;;;;6277986;22;20030;-87
2022/05/20 14:45:38;;;;;;;7.82;2.78;;;32.00;38.10;;;;;;6287539;22;20031;-88
2022/05/20 14:48:44;;;;;;;8.90;2.45;;;32.10;38.30;;;;;;6278317;22;20465;-85
2022/05/20 14:51:53;;;;;;;4.82;2.60;;;32.20;38.80;;;;;;6279492;22;20027;-87
2022/05/20 14:54:45;;;;;;;6.72;2.50;;;32.00;39.50;;;;;;6278249;22;20034;-88
2022/05/20 14:57:38;;;;;;;6.13;2.22;;;31.80;40.70;;;;;;6276755;22;20146;-87
2022/05/20 15:00:26;;;;;;;7.93;2.60;;;31.90;39.80;;;;;;6278833;22;20406;-86
2022/05/20 15:03:16;;;;;;;10.55;2.80;;;32.70;40.20;;;;;;6256390;22;20083;-88
2022/05/20 15:06:05;;;;;;;10.40;3.10;;;33.40;42.00;;;;;;6278488;22;20114;-88
2022/05/20 15:08:53;;;;;;;9.30;3.15;;;34.00;42.00;;;;;;6278104;22;20100;-87
2022/05/20 15:11:40;;;;;;;5.97;2.70;;;34.30;41.30;;;;;;6255407;22;20050;-86
2022/05/20 15:14:28;;;;;;;10.75;3.35;;;35.30;39.30;;;;;;6278680;22;20126;-90
2022/05/20 15:17:18;;;;;;;4.93;2.65;;;35.30;40.20;;;;;;6259359;22;20039;-87
2022/05/20 15:20:07;;;;;;;7.25;3.15;;;35.40;37.10;;;;;;6255260;22;20081;-89
2022/05/20 15:22:56;;;;;;;5.35;2.38;;;36.00;37.20;;;;;;6277416;22;20315;-87
2022/05/20 15:25:48;;;;;;;7.75;2.50;;;36.00;32.10;;;;;;6275987;22;20031;-86
2022/05/20 15:28:47;;;;;;;16.00;2.97;;;35.80;31.40;;;;;;6275748;22;20126;-86
2022/05/20 15:34:52;;;;;;;19.30;3.47;;;34.10;40.50;;;;;;6278562;22;20108;-85
2022/05/20 15:37:42;;;;;;;12.02;3.63;;;32.50;43.70;;;;;;6278786;22;20026;-88
2022/05/20 15:40:31;;;;;;;10.30;3.40;;;31.40;46.10;;;;;;6276772;22;20019;-84
2022/05/20 15:43:21;;;;;;;14.52;3.72;;;30.60;48.60;;;;;;6278179;22;20023;-85
2022/05/20 15:46:10;;;;;;;13.75;3.65;;;29.80;49.60;;;;;;6280312;22;20028;-86
2022/05/20 15:49:00;;;;;;;9.98;3.20;;;29.10;50.00;;;;;;6278144;22;20049;-86
2022/05/20 15:51:47;;;;;;;11.07;3.30;;;28.40;53.10;;;;;;6276832;22;20390;-87
2022/05/20 15:54:42;;;;;;;8.35;3.25;;;27.90;54.30;;;;;;6276768;22;20035;-87
2022/05/20 15:57:32;;;;;;;14.70;3.90;;;27.50;55.30;;;;;;6255826;22;20023;-86